createdAt,value
2023-04-01T00:00:35.417Z,2.10
2023-04-01T00:05:39.668Z,1.67
2023-04-01T00:10:42.539Z,1.52
2023-04-01T00:15:45.882Z,1.25
2023-04-01T00:20:51.775Z,1.00
2023-04-01T00:25:54.546Z,1.27
2023-04-01T00:30:57.321Z,1.00
2023-04-01T00:36:10.783Z,0.98
2023-04-01T00:41:16.519Z,0.90
2023-04-01T00:46:19.853Z,0.98
2023-04-01T00:51:27.999Z,0.90
2023-04-01T00:56:34.867Z,0.95
2023-04-01T01:01:38.028Z,0.60
2023-04-01T01:06:53.242Z,0.63
2023-04-01T01:12:03.835Z,0.90
2023-04-01T01:17:16.045Z,1.35
2023-04-01T01:22:36.790Z,0.90
2023-04-01T01:27:42.658Z,0.77
2023-04-01T01:33:13.966Z,0.80
2023-04-01T01:38:19.911Z,0.95
2023-04-01T01:43:34.443Z,0.70
2023-04-01T01:48:38.216Z,0.60
2023-04-01T01:53:42.360Z,0.57
2023-04-01T01:58:49.546Z,0.60
2023-04-01T02:03:57.480Z,0.70
2023-04-01T02:09:04.739Z,0.60
2023-04-01T02:14:12.671Z,0.40
2023-04-01T02:19:23.399Z,0.45
2023-04-01T02:24:32.559Z,0.47
2023-04-01T02:29:35.493Z,0.40
2023-04-01T02:34:38.918Z,0.60
2023-04-01T02:39:43.660Z,0.70
2023-04-01T02:44:46.732Z,0.40
2023-04-01T02:49:50.340Z,0.52
2023-04-01T02:54:54.930Z,0.40
2023-04-01T02:59:57.827Z,0.45
2023-04-01T03:05:00.606Z,0.60
2023-04-01T03:10:05.063Z,0.50
2023-04-01T03:15:10.600Z,0.50
2023-04-01T03:20:15.970Z,0.88
2023-04-01T03:25:20.480Z,0.40
2023-04-01T03:30:23.684Z,0.30
2023-04-01T03:35:27.529Z,0.38
2023-04-01T03:40:31.708Z,0.60
2023-04-01T03:45:34.804Z,0.35
2023-04-01T03:50:37.840Z,0.40
2023-04-01T03:55:42.020Z,0.55
2023-04-01T04:00:44.852Z,0.40
2023-04-01T04:05:49.459Z,0.60
2023-04-01T04:10:58.246Z,0.40
2023-04-01T04:16:01.644Z,0.40
2023-04-01T04:21:06.128Z,0.30
2023-04-01T04:26:12.400Z,0.80
2023-04-01T04:31:20.907Z,0.68
2023-04-01T04:36:24.509Z,0.70
2023-04-01T04:41:29.967Z,0.50
2023-04-01T04:46:32.929Z,0.95
2023-04-01T04:51:47.689Z,0.60
2023-04-01T04:56:54.835Z,0.68
2023-04-01T05:01:59.266Z,0.50
2023-04-01T05:07:02.035Z,0.50
2023-04-01T05:12:07.017Z,0.43
2023-04-01T05:17:41.931Z,0.52
2023-04-01T05:22:46.308Z,0.40
2023-04-01T05:27:50.552Z,0.52
2023-04-01T05:32:53.470Z,0.47
2023-04-01T05:37:56.564Z,0.40
2023-04-01T05:43:01.405Z,0.60
2023-04-01T05:48:04.547Z,0.80
2023-04-01T05:53:14.242Z,0.68
2023-04-01T05:58:20.782Z,0.40
2023-04-01T06:03:24.532Z,0.60
2023-04-01T06:08:27.740Z,0.60
2023-04-01T06:13:50.057Z,0.50
2023-04-01T06:19:02.845Z,0.30
2023-04-01T06:24:24.314Z,0.30
2023-04-01T06:29:45.363Z,0.65
2023-04-01T06:35:14.531Z,0.40
2023-04-01T06:40:53.558Z,0.30
2023-04-01T06:46:06.781Z,1.27
2023-04-01T06:51:37.256Z,0.60
2023-04-01T06:57:04.504Z,0.50
2023-04-01T07:02:24.807Z,0.70
2023-04-01T07:07:35.601Z,0.50
2023-04-01T07:12:48.231Z,0.80
2023-04-01T07:18:32.431Z,0.73
2023-04-01T07:23:42.986Z,0.90
2023-04-01T07:28:59.336Z,0.60
2023-04-01T07:34:25.194Z,0.68
2023-04-01T07:39:37.262Z,0.80
2023-04-01T07:45:00.798Z,0.85
2023-04-01T07:50:15.713Z,1.20
2023-04-01T07:55:24.909Z,0.85
2023-04-01T08:00:35.438Z,1.00
2023-04-01T08:05:57.814Z,1.15
2023-04-01T08:11:11.884Z,1.05
2023-04-01T08:16:40.618Z,1.48
2023-04-01T08:21:51.758Z,1.70
2023-04-01T08:26:59.274Z,1.50
2023-04-01T08:32:08.694Z,1.58
2023-04-01T08:37:19.521Z,1.80
2023-04-01T08:42:53.527Z,1.80
2023-04-01T08:48:19.363Z,1.75
2023-04-01T08:53:44.012Z,1.40
2023-04-01T08:59:08.370Z,1.02
2023-04-01T09:04:33.802Z,1.33
2023-04-01T09:10:07.883Z,1.02
2023-04-01T09:15:54.597Z,1.10
2023-04-01T09:21:22.492Z,0.90
2023-04-01T09:26:51.349Z,1.10
2023-04-01T09:32:18.151Z,1.00
2023-04-01T09:37:36.534Z,1.20
2023-04-01T09:42:57.796Z,0.98
2023-04-01T09:48:18.166Z,0.90
2023-04-01T09:53:36.865Z,0.90
2023-04-01T09:59:11.744Z,0.63
2023-04-01T10:05:00.649Z,0.80
2023-04-01T10:10:36.422Z,0.77
2023-04-01T10:16:06.141Z,1.10
2023-04-01T10:21:38.894Z,0.80
2023-04-01T10:27:04.309Z,1.10
2023-04-01T10:32:47.722Z,0.90
2023-04-01T10:38:28.465Z,0.73
2023-04-01T10:44:04.667Z,0.47
2023-04-01T10:49:46.454Z,0.70
2023-04-01T10:55:00.560Z,0.80
2023-04-01T11:01:09.780Z,1.00
2023-04-01T11:07:22.904Z,1.33
2023-04-01T11:13:02.280Z,1.13
2023-04-01T11:18:59.727Z,1.40
2023-04-01T11:24:26.836Z,1.00
2023-04-01T11:30:09.073Z,0.63
2023-04-01T11:35:42.553Z,1.02
2023-04-01T11:40:53.529Z,0.98
2023-04-01T11:46:25.741Z,1.00
2023-04-01T11:51:41.684Z,0.82
2023-04-01T11:57:02.283Z,0.90
2023-04-01T12:02:14.843Z,0.93
2023-04-01T12:07:24.820Z,0.80
2023-04-01T12:12:34.811Z,0.65
2023-04-01T12:17:46.453Z,0.80
2023-04-01T12:22:55.594Z,0.70
2023-04-01T12:28:16.551Z,0.73
2023-04-01T12:33:34.135Z,0.70
2023-04-01T12:38:46.673Z,0.75
2023-04-01T12:44:15.141Z,0.63
2023-04-01T12:49:36.372Z,0.90
2023-04-01T12:55:23.179Z,0.90
2023-04-01T13:00:44.522Z,0.70
2023-04-01T13:06:20.936Z,0.60
2023-04-01T13:11:41.425Z,0.60
2023-04-01T13:16:54.373Z,0.80
2023-04-01T13:22:04.428Z,0.60
2023-04-01T13:27:16.739Z,0.50
2023-04-01T13:32:43.242Z,0.30
2023-04-01T13:37:59.612Z,0.22
2023-04-01T13:43:06.110Z,0.40
2023-04-01T13:48:32.912Z,0.20
2023-04-01T13:54:05.921Z,0.40
2023-04-01T13:59:38.207Z,0.63
2023-04-01T14:04:51.924Z,0.32
2023-04-01T14:10:08.031Z,0.60
2023-04-01T14:15:29.489Z,0.93
2023-04-01T14:20:42.403Z,0.70
2023-04-01T14:26:09.670Z,0.77
2023-04-01T14:31:36.573Z,1.17
2023-04-01T14:37:03.359Z,0.93
2023-04-01T14:42:25.973Z,1.38
2023-04-01T14:47:52.759Z,1.60
2023-04-01T14:53:01.721Z,1.50
2023-04-01T14:58:12.934Z,1.48
2023-04-01T15:03:21.120Z,1.38
2023-04-01T15:08:29.583Z,1.60
2023-04-01T15:13:53.261Z,1.60
2023-04-01T15:19:07.387Z,1.30
2023-04-01T15:24:22.508Z,1.10
2023-04-01T15:29:41.709Z,1.13
2023-04-01T15:34:51.978Z,0.90
2023-04-01T15:40:04.276Z,0.52
2023-04-01T15:45:18.715Z,0.65
2023-04-01T15:50:56.478Z,1.10
2023-04-01T15:56:12.900Z,1.38
2023-04-01T16:01:26.338Z,0.60
2023-04-01T16:06:54.631Z,0.40
2023-04-01T16:12:07.111Z,0.40
2023-04-01T16:17:35.076Z,0.38
2023-04-01T16:22:41.934Z,0.50
2023-04-01T16:27:54.826Z,0.47
2023-04-01T16:33:05.928Z,1.75
2023-04-01T16:38:17.739Z,0.60
2023-04-01T16:43:30.355Z,0.43
2023-04-01T16:48:51.812Z,0.45
2023-04-01T16:54:07.687Z,0.70
2023-04-01T16:59:23.239Z,2.60
2023-04-01T17:04:35.341Z,1.40
2023-04-01T17:09:51.985Z,1.58
2023-04-01T17:15:05.834Z,2.20
2023-04-01T17:20:36.936Z,2.28
2023-04-01T17:25:59.981Z,2.22
2023-04-01T17:31:12.788Z,2.17
2023-04-01T17:36:27.080Z,2.92
2023-04-01T17:41:38.620Z,3.08
2023-04-01T17:47:02.205Z,2.90
2023-04-01T17:52:17.582Z,3.20
2023-04-01T17:57:41.957Z,3.50
2023-04-01T18:02:58.357Z,3.15
2023-04-01T18:08:14.519Z,3.33
2023-04-01T18:13:29.081Z,3.88
2023-04-01T18:18:52.120Z,3.83
2023-04-01T18:24:02.581Z,3.40
2023-04-01T18:29:18.946Z,3.47
2023-04-01T18:34:42.033Z,3.00
2023-04-01T18:39:50.940Z,3.15
2023-04-01T18:44:58.395Z,3.00
2023-04-01T18:50:15.931Z,2.28
2023-04-01T18:55:32.539Z,2.55
2023-04-01T19:00:41.505Z,2.40
2023-04-01T19:05:49.272Z,3.03
2023-04-01T19:11:04.242Z,2.70
2023-04-01T19:16:16.246Z,3.00
2023-04-01T19:21:23.436Z,3.22
2023-04-01T19:26:31.951Z,3.35
2023-04-01T19:31:50.282Z,3.28
2023-04-01T19:36:58.659Z,3.92
2023-04-01T19:42:13.705Z,3.50
2023-04-01T19:47:22.874Z,3.47
2023-04-01T19:52:33.719Z,3.85
2023-04-01T19:57:44.014Z,3.80
2023-04-01T20:02:58.829Z,3.38
2023-04-01T20:08:13.551Z,3.90
2023-04-01T20:13:27.408Z,3.88
2023-04-01T20:18:40.268Z,4.70
2023-04-01T20:23:49.606Z,4.72
2023-04-01T20:29:12.069Z,5.72
2023-04-01T20:34:32.150Z,6.88
2023-04-01T20:40:04.716Z,5.00
2023-04-01T20:45:24.606Z,4.00
2023-04-01T20:50:31.685Z,4.15
2023-04-01T20:56:21.602Z,4.60
2023-04-01T21:01:37.525Z,4.00
2023-04-01T21:06:54.643Z,4.32
2023-04-01T21:12:11.854Z,5.03
2023-04-01T21:17:24.680Z,4.43
2023-04-01T21:23:03.241Z,4.93
2023-04-01T21:28:22.038Z,4.13
2023-04-01T21:33:39.587Z,4.10
2023-04-01T21:38:54.918Z,4.75
2023-04-01T21:44:34.838Z,4.10
2023-04-01T21:50:05.239Z,4.50
2023-04-01T21:56:01.035Z,4.07
2023-04-01T22:01:23.856Z,4.28
2023-04-01T22:06:35.686Z,3.80
2023-04-01T22:11:50.406Z,3.83
2023-04-01T22:16:58.952Z,3.03
2023-04-01T22:22:10.392Z,2.55
2023-04-01T22:27:20.558Z,2.05
2023-04-01T22:32:30.395Z,1.63
2023-04-01T22:37:39.412Z,1.58
2023-04-01T22:42:45.545Z,2.00
2023-04-01T22:48:02.312Z,3.60
2023-04-01T22:53:16.124Z,2.72
2023-04-01T22:58:23.742Z,3.72
2023-04-01T23:03:32.290Z,3.60
2023-04-01T23:08:57.748Z,3.60
2023-04-01T23:14:19.430Z,3.53
2023-04-01T23:19:28.926Z,3.70
2023-04-01T23:24:37.320Z,4.18
2023-04-01T23:29:43.599Z,3.88
2023-04-01T23:34:51.452Z,4.20
2023-04-01T23:39:56.188Z,4.40
2023-04-01T23:45:01.523Z,5.00
2023-04-01T23:50:12.825Z,5.15
2023-04-01T23:55:19.939Z,6.30
